Time;durP1;ratioP1;P1;durP2;ratioP2;P2;SDS_P1;SDS_P2;PMS_P1;PMS_P2;Temp;Humidity;BMP_temperature;BMP_pressure;BME280_temperature;BME280_humidity;BME280_pressure;Samples;Min_cycle;Max_cycle;Signal;HPM_P1;HPM_P2
2020/12/31 00:01:35;;;;;;;5.78;3.72;;;3.60;99.90;;;;;;5052576;28;20179;-64
2020/12/31 00:04:01;;;;;;;4.43;3.35;;;3.60;99.90;;;;;;5051616;28;20179;-62
2020/12/31 00:06:27;;;;;;;5.32;2.92;;;3.50;99.90;;;;;;5052191;28;20210;-63
2020/12/31 00:08:53;;;;;;;6.53;3.42;;;3.60;99.90;;;;;;5052239;28;20193;-63
2020/12/31 00:11:19;;;;;;;5.18;3.40;;;3.60;99.90;;;;;;5052669;28;20178;-62
2020/12/31 00:13:45;;;;;;;5.38;3.22;;;3.60;99.90;;;;;;5051988;28;20178;-63
2020/12/31 00:16:12;;;;;;;6.68;3.10;;;3.60;99.90;;;;;;5052408;28;20177;-63
2020/12/31 00:18:38;;;;;;;5.47;3.00;;;3.60;99.90;;;;;;5052450;28;20182;-62
2020/12/31 00:21:04;;;;;;;4.95;3.17;;;3.60;99.90;;;;;;5052162;28;20179;-63
2020/12/31 00:23:30;;;;;;;4.10;2.90;;;3.60;99.90;;;;;;5052248;28;20214;-62
2020/12/31 00:25:56;;;;;;;5.60;2.95;;;3.60;99.90;;;;;;5052459;28;20686;-62
2020/12/31 00:28:22;;;;;;;3.75;2.55;;;3.60;99.90;;;;;;5052046;28;20258;-63
2020/12/31 00:30:49;;;;;;;4.35;2.67;;;3.60;99.90;;;;;;5050994;28;20175;-63
2020/12/31 00:33:16;;;;;;;3.33;2.40;;;3.60;99.90;;;;;;5033757;28;20195;-62
2020/12/31 00:35:44;;;;;;;4.25;2.60;;;3.60;99.90;;;;;;5051053;28;20551;-62
2020/12/31 00:38:10;;;;;;;3.50;2.42;;;3.60;99.90;;;;;;5049679;28;20199;-63
2020/12/31 00:40:36;;;;;;;5.05;2.45;;;3.60;99.90;;;;;;5051394;28;20183;-62
2020/12/31 00:43:03;;;;;;;3.45;2.10;;;3.60;99.90;;;;;;5049757;28;20546;-62
2020/12/31 00:45:29;;;;;;;6.68;2.58;;;3.60;99.90;;;;;;5050850;28;20178;-63
2020/12/31 00:47:55;;;;;;;7.10;2.78;;;3.60;99.90;;;;;;5052058;28;20221;-62
2020/12/31 00:50:24;;;;;;;4.68;2.72;;;3.60;99.90;;;;;;5051933;28;20178;-63
2020/12/31 00:52:50;;;;;;;3.50;2.55;;;3.60;99.90;;;;;;5050283;28;20190;-62
2020/12/31 00:55:16;;;;;;;6.40;2.78;;;3.70;99.90;;;;;;5052458;28;20179;-63
2020/12/31 00:57:43;;;;;;;4.20;2.58;;;3.70;99.90;;;;;;5051739;28;20182;-62
2020/12/31 01:00:09;;;;;;;5.75;3.13;;;3.70;99.90;;;;;;5051795;28;20186;-63
2020/12/31 01:02:35;;;;;;;3.75;2.78;;;3.70;99.90;;;;;;5051559;28;20186;-63
2020/12/31 01:05:04;;;;;;;6.13;2.80;;;3.70;99.90;;;;;;5050465;28;20194;-63
2020/12/31 01:07:31;;;;;;;4.97;3.03;;;3.70;99.90;;;;;;5051333;28;20601;-62
2020/12/31 01:09:57;;;;;;;4.15;2.78;;;3.70;99.90;;;;;;5051788;28;20183;-62
2020/12/31 01:12:23;;;;;;;6.50;3.97;;;3.70;99.90;;;;;;5051740;28;20194;-63
2020/12/31 01:14:49;;;;;;;5.18;3.45;;;3.70;99.90;;;;;;5052680;28;20183;-63
2020/12/31 01:17:15;;;;;;;5.10;3.22;;;3.80;99.90;;;;;;5056187;28;20183;-63
2020/12/31 01:19:41;;;;;;;7.15;3.70;;;3.80;99.90;;;;;;5056043;28;20170;-63
2020/12/31 01:22:07;;;;;;;5.07;3.35;;;3.70;99.90;;;;;;5055685;28;20639;-63
2020/12/31 01:24:33;;;;;;;5.05;3.50;;;3.80;99.90;;;;;;5054642;28;20206;-62
2020/12/31 01:27:02;;;;;;;5.57;3.40;;;3.80;99.90;;;;;;5055655;28;20225;-63
2020/12/31 01:29:28;;;;;;;4.88;3.40;;;3.70;99.90;;;;;;5056369;28;20190;-62
2020/12/31 01:31:54;;;;;;;5.82;3.78;;;3.70;99.90;;;;;;5055790;28;20182;-63
2020/12/31 01:34:20;;;;;;;6.43;3.20;;;3.70;99.90;;;;;;5055165;28;20179;-63
2020/12/31 01:36:46;;;;;;;5.50;3.03;;;3.70;99.90;;;;;;5055466;28;20183;-63
2020/12/31 01:39:13;;;;;;;4.30;3.00;;;3.70;99.90;;;;;;5054643;28;20559;-63
2020/12/31 01:41:39;;;;;;;5.53;3.28;;;3.70;99.90;;;;;;5055881;28;20171;-62
2020/12/31 01:44:09;;;;;;;3.97;2.85;;;3.80;99.90;;;;;;5055883;28;20186;-63
2020/12/31 01:46:37;;;;;;;4.72;2.90;;;3.70;99.90;;;;;;5055153;28;20178;-63
2020/12/31 01:49:05;;;;;;;4.78;2.83;;;3.70;99.90;;;;;;5055071;28;20186;-63
2020/12/31 01:51:32;;;;;;;4.35;2.95;;;3.70;99.90;;;;;;5055355;28;20167;-63
2020/12/31 01:53:58;;;;;;;3.50;2.35;;;3.70;99.90;;;;;;5055009;28;20526;-62
2020/12/31 01:56:27;;;;;;;4.40;2.70;;;3.70;99.90;;;;;;5053684;28;20179;-63
2020/12/31 01:58:54;;;;;;;4.70;2.83;;;3.60;99.90;;;;;;5054816;28;20173;-63
2020/12/31 02:01:21;;;;;;;4.00;2.65;;;3.60;99.90;;;;;;5055054;28;20186;-63
2020/12/31 02:03:48;;;;;;;3.47;2.47;;;3.60;99.90;;;;;;5054887;28;20534;-63
2020/12/31 02:06:15;;;;;;;4.10;2.60;;;3.60;99.90;;;;;;5055168;28;20241;-63
2020/12/31 02:08:45;;;;;;;4.72;2.80;;;3.60;99.90;;;;;;5037134;28;20202;-63
2020/12/31 02:11:15;;;;;;;3.15;2.30;;;3.60;99.90;;;;;;5054747;28;20174;-63
2020/12/31 02:13:44;;;;;;;2.80;2.13;;;3.60;99.90;;;;;;5054600;28;20182;-63
2020/12/31 02:16:17;;;;;;;3.28;2.25;;;3.60;99.90;;;;;;5053834;28;20189;-63
2020/12/31 02:18:56;;;;;;;3.20;2.10;;;3.60;99.90;;;;;;5054733;28;20189;-63
2020/12/31 02:21:32;;;;;;;3.10;2.17;;;3.60;99.90;;;;;;5055020;28;20174;-62
2020/12/31 02:24:00;;;;;;;3.92;1.48;;;3.60;99.90;;;;;;5054415;28;20183;-63
2020/12/31 02:26:28;;;;;;;2.78;1.70;;;3.60;99.90;;;;;;5053404;28;20222;-63
2020/12/31 02:28:54;;;;;;;2.60;1.77;;;3.60;99.90;;;;;;5054269;28;20524;-62
2020/12/31 02:31:21;;;;;;;3.00;1.85;;;3.50;99.90;;;;;;5053332;28;20535;-62
2020/12/31 02:33:47;;;;;;;3.08;2.00;;;3.50;99.90;;;;;;5054157;28;20198;-63
2020/12/31 02:36:14;;;;;;;3.22;1.80;;;3.50;99.90;;;;;;5052889;28;20261;-63
2020/12/31 02:38:41;;;;;;;2.30;1.60;;;3.50;99.90;;;;;;5054326;28;20179;-62
2020/12/31 02:41:07;;;;;;;2.60;1.50;;;3.50;99.90;;;;;;5054140;28;20546;-62
2020/12/31 02:43:34;;;;;;;4.50;1.70;;;3.50;99.90;;;;;;5054208;28;20569;-62
2020/12/31 02:46:00;;;;;;;2.10;1.30;;;3.50;99.90;;;;;;5053065;28;20202;-62
2020/12/31 02:48:26;;;;;;;2.75;1.67;;;3.50;99.90;;;;;;5053995;28;20202;-62
2020/12/31 02:50:52;;;;;;;4.15;1.58;;;3.50;99.90;;;;;;5054021;28;20182;-63
2020/12/31 02:53:18;;;;;;;2.33;1.40;;;3.50;99.90;;;;;;5053839;28;20178;-63
2020/12/31 02:55:44;;;;;;;2.28;1.52;;;3.40;99.90;;;;;;5054039;28;20182;-62
2020/12/31 02:58:11;;;;;;;2.10;1.48;;;3.50;99.90;;;;;;5054082;28;20175;-62
2020/12/31 03:00:37;;;;;;;3.13;1.67;;;3.40;99.90;;;;;;5051703;28;20194;-63
2020/12/31 03:03:03;;;;;;;2.50;1.60;;;3.50;99.90;;;;;;5053294;28;20186;-63
2020/12/31 03:05:29;;;;;;;3.22;1.33;;;3.50;99.90;;;;;;5053849;28;20170;-63
2020/12/31 03:07:55;;;;;;;1.85;1.35;;;3.50;99.90;;;;;;5053782;28;20214;-62
2020/12/31 03:10:21;;;;;;;1.88;1.33;;;3.50;99.90;;;;;;5052501;28;20627;-62
2020/12/31 03:12:48;;;;;;;1.95;1.40;;;3.50;99.90;;;;;;5053246;28;20538;-62
2020/12/31 03:15:15;;;;;;;1.80;1.35;;;3.50;99.90;;;;;;5053297;28;20193;-63
2020/12/31 03:17:41;;;;;;;2.88;1.50;;;3.50;99.90;;;;;;5053117;28;20174;-63
2020/12/31 03:20:07;;;;;;;2.35;1.50;;;3.40;99.90;;;;;;5053348;28;20194;-62
2020/12/31 03:22:34;;;;;;;2.47;1.50;;;3.50;99.90;;;;;;5052474;28;20171;-62
2020/12/31 03:25:00;;;;;;;2.20;1.50;;;3.50;99.90;;;;;;5053145;28;20255;-62
2020/12/31 03:27:26;;;;;;;4.28;1.58;;;3.50;99.90;;;;;;5035980;28;20205;-62
2020/12/31 03:29:52;;;;;;;1.65;1.13;;;3.50;99.90;;;;;;5053598;28;20182;-62
2020/12/31 03:32:19;;;;;;;3.45;1.35;;;3.50;99.90;;;;;;5053082;28;20186;-62
2020/12/31 03:34:45;;;;;;;1.90;1.30;;;3.40;99.90;;;;;;5053541;28;20190;-62
2020/12/31 03:37:11;;;;;;;1.80;1.20;;;3.40;99.90;;;;;;5053441;28;20197;-62
2020/12/31 03:39:37;;;;;;;2.00;1.20;;;3.40;99.90;;;;;;5052774;28;20546;-62
2020/12/31 03:42:04;;;;;;;5.10;1.40;;;3.50;99.90;;;;;;5053270;28;20181;-62
2020/12/31 03:44:30;;;;;;;3.72;2.38;;;3.50;99.90;;;;;;5052945;28;20183;-62
2020/12/31 03:46:57;;;;;;;2.53;1.40;;;3.50;99.90;;;;;;5052588;28;20183;-62
2020/12/31 03:49:23;;;;;;;1.77;1.30;;;3.40;99.90;;;;;;5051614;28;20674;-62
2020/12/31 03:51:49;;;;;;;1.25;1.00;;;3.50;99.90;;;;;;5052610;28;20697;-62
2020/12/31 03:54:15;;;;;;;2.08;1.20;;;3.50;99.90;;;;;;5053167;28;20619;-62
2020/12/31 03:56:41;;;;;;;1.42;0.85;;;3.50;99.90;;;;;;5053154;28;20172;-62
2020/12/31 03:59:07;;;;;;;1.60;1.02;;;3.50;99.90;;;;;;5053325;28;20174;-62
2020/12/31 04:01:34;;;;;;;1.58;0.93;;;3.50;99.90;;;;;;5051618;28;20619;-62
2020/12/31 04:04:00;;;;;;;2.38;1.00;;;3.50;99.90;;;;;;5052774;28;20183;-62
2020/12/31 04:06:27;;;;;;;1.77;1.08;;;3.50;99.90;;;;;;5051958;28;20519;-62
2020/12/31 04:08:53;;;;;;;1.88;1.00;;;3.40;99.90;;;;;;5052753;28;20232;-62
2020/12/31 04:11:19;;;;;;;1.73;0.90;;;3.40;99.90;;;;;;5053014;28;20615;-62
2020/12/31 04:13:46;;;;;;;1.35;0.70;;;3.40;99.90;;;;;;5052947;28;20185;-62
2020/12/31 04:16:12;;;;;;;1.55;0.90;;;3.40;99.90;;;;;;5052790;28;20178;-62
2020/12/31 04:18:38;;;;;;;1.02;0.80;;;3.40;99.90;;;;;;5052109;28;20654;-62
2020/12/31 04:21:04;;;;;;;1.25;0.88;;;3.40;99.90;;;;;;5051598;28;20202;-62
2020/12/31 04:23:30;;;;;;;1.90;0.88;;;3.50;99.90;;;;;;5052783;28;20187;-62
2020/12/31 04:25:56;;;;;;;1.17;0.80;;;3.40;99.90;;;;;;5051654;28;20215;-62
2020/12/31 04:28:23;;;;;;;1.27;0.82;;;3.40;99.90;;;;;;5052187;28;20209;-62
2020/12/31 04:30:49;;;;;;;1.13;0.80;;;3.40;99.90;;;;;;5052059;28;20204;-62
2020/12/31 04:33:16;;;;;;;2.40;1.15;;;3.50;99.90;;;;;;5049694;28;20182;-62
2020/12/31 04:35:42;;;;;;;1.98;0.90;;;3.50;99.90;;;;;;5052317;28;20175;-62
2020/12/31 04:38:08;;;;;;;1.25;0.90;;;3.40;99.90;;;;;;5052559;28;20653;-61
2020/12/31 04:40:34;;;;;;;1.42;1.10;;;3.50;99.90;;;;;;5052834;28;20171;-62
2020/12/31 04:43:01;;;;;;;2.17;1.20;;;3.50;99.90;;;;;;5053123;28;20186;-62
2020/12/31 04:45:28;;;;;;;1.80;0.98;;;3.50;99.90;;;;;;5033662;28;20171;-62
2020/12/31 04:48:12;;;;;;;1.45;1.00;;;3.50;99.90;;;;;;5033731;28;20222;-61
2020/12/31 04:50:39;;;;;;;1.48;0.93;;;3.50;99.90;;;;;;5050400;28;20619;-61
2020/12/31 04:53:07;;;;;;;3.13;1.10;;;3.50;99.90;;;;;;5052149;28;20187;-62
2020/12/31 04:55:43;;;;;;;2.17;1.10;;;3.50;99.90;;;;;;5051046;28;20310;-61
2020/12/31 04:58:10;;;;;;;2.10;1.30;;;3.50;99.90;;;;;;5051987;28;20170;-61
2020/12/31 05:00:37;;;;;;;2.42;1.40;;;3.50;99.90;;;;;;5050794;28;20177;-61
2020/12/31 05:03:03;;;;;;;2.72;1.23;;;3.50;99.90;;;;;;5051721;28;20189;-61
2020/12/31 05:05:30;;;;;;;2.17;1.23;;;3.50;99.90;;;;;;5051787;28;20170;-62
2020/12/31 05:07:56;;;;;;;2.00;0.90;;;3.60;99.90;;;;;;5051556;28;20218;-62
2020/12/31 05:10:22;;;;;;;2.78;0.90;;;3.60;99.90;;;;;;5050458;28;20174;-62
2020/12/31 05:13:07;;;;;;;2.17;1.25;;;3.50;99.90;;;;;;5050392;28;20182;-61
2020/12/31 05:15:40;;;;;;;2.95;1.10;;;3.60;99.90;;;;;;5050904;28;20158;-61
2020/12/31 05:18:22;;;;;;;2.47;1.38;;;3.50;99.90;;;;;;5044763;28;20170;-61
2020/12/31 05:20:52;;;;;;;2.03;1.10;;;3.60;99.90;;;;;;5051616;28;20171;-61
2020/12/31 05:23:38;;;;;;;2.95;1.10;;;3.50;99.90;;;;;;5052129;28;20159;-61
2020/12/31 05:26:04;;;;;;;2.72;1.20;;;3.60;99.90;;;;;;5050880;28;20226;-61
2020/12/31 05:28:32;;;;;;;4.35;1.40;;;3.60;99.90;;;;;;5052139;28;20210;-64
2020/12/31 05:31:00;;;;;;;2.28;1.58;;;3.60;99.90;;;;;;5050641;28;20238;-62
2020/12/31 05:33:34;;;;;;;2.17;1.27;;;3.60;99.90;;;;;;5030174;28;20187;-61
2020/12/31 05:36:16;;;;;;;2.72;1.55;;;3.70;99.90;;;;;;5049685;28;20190;-61
2020/12/31 05:39:03;;;;;;;2.33;1.40;;;3.60;99.90;;;;;;5051475;28;20175;-61
2020/12/31 05:41:33;;;;;;;2.30;1.40;;;3.70;99.90;;;;;;5052160;28;20514;-61
2020/12/31 05:44:06;;;;;;;2.08;1.40;;;3.60;99.90;;;;;;5051883;28;20615;-61
2020/12/31 05:46:37;;;;;;;3.80;1.25;;;3.70;99.90;;;;;;5051948;28;20179;-61
2020/12/31 05:49:08;;;;;;;1.48;1.00;;;3.70;99.90;;;;;;5049511;28;20507;-61
2020/12/31 05:51:36;;;;;;;1.75;1.20;;;3.70;99.90;;;;;;5052188;28;20194;-61
2020/12/31 05:54:09;;;;;;;2.58;1.10;;;3.80;99.90;;;;;;5049975;28;20640;-61
2020/12/31 05:56:39;;;;;;;2.10;1.08;;;3.80;99.90;;;;;;5051792;28;20554;-60
2020/12/31 05:59:24;;;;;;;2.75;1.20;;;3.80;99.90;;;;;;5051826;28;20519;-60
2020/12/31 06:01:54;;;;;;;2.13;0.98;;;3.70;99.90;;;;;;5053024;28;20190;-61
2020/12/31 06:04:21;;;;;;;1.70;0.95;;;3.70;99.90;;;;;;5055119;28;20171;-61
2020/12/31 06:06:50;;;;;;;1.73;1.05;;;3.70;99.90;;;;;;5053622;28;20205;-61
2020/12/31 06:09:29;;;;;;;1.73;0.73;;;3.70;99.90;;;;;;5054945;28;20205;-60
2020/12/31 06:12:02;;;;;;;1.60;1.20;;;3.80;99.90;;;;;;5053567;28;20158;-60
2020/12/31 06:14:29;;;;;;;1.40;0.90;;;3.80;99.90;;;;;;5054757;28;20182;-60
2020/12/31 06:16:59;;;;;;;2.53;1.08;;;3.80;99.90;;;;;;5054754;28;20177;-60
2020/12/31 06:19:29;;;;;;;3.22;1.10;;;3.90;99.90;;;;;;5055371;28;20182;-60
2020/12/31 06:22:17;;;;;;;3.47;0.90;;;3.80;99.90;;;;;;5054865;28;20197;-60
2020/12/31 06:24:45;;;;;;;2.67;1.30;;;3.70;99.90;;;;;;5053461;28;20214;-60
2020/12/31 06:27:15;;;;;;;2.83;1.42;;;3.80;99.90;;;;;;5054098;28;20503;-60
2020/12/31 06:29:48;;;;;;;2.53;1.92;;;3.80;99.90;;;;;;5055087;28;20567;-60
2020/12/31 06:32:24;;;;;;;4.75;1.48;;;3.80;99.90;;;;;;5054493;28;20166;-60
2020/12/31 06:34:50;;;;;;;3.60;1.80;;;3.90;99.90;;;;;;5052548;28;20189;-60
2020/12/31 06:37:16;;;;;;;5.20;1.90;;;3.90;99.90;;;;;;5053135;28;20197;-60
2020/12/31 06:39:43;;;;;;;4.15;1.95;;;3.80;99.90;;;;;;5054595;28;20566;-60
2020/12/31 06:42:09;;;;;;;3.90;2.00;;;3.80;99.90;;;;;;5054406;28;20175;-60
2020/12/31 06:44:35;;;;;;;8.43;2.03;;;3.80;99.90;;;;;;5055097;28;20189;-60
2020/12/31 06:47:01;;;;;;;6.47;1.90;;;3.70;99.90;;;;;;5054213;28;20527;-60
2020/12/31 06:49:52;;;;;;;5.22;2.15;;;3.80;99.90;;;;;;5054055;28;20201;-60
2020/12/31 06:52:19;;;;;;;3.88;2.00;;;3.80;99.90;;;;;;5050658;28;20194;-60
2020/12/31 06:54:45;;;;;;;3.80;2.00;;;3.70;99.90;;;;;;5053736;28;20182;-59
2020/12/31 06:57:11;;;;;;;6.30;1.90;;;3.80;99.90;;;;;;5053638;28;20179;-60
2020/12/31 06:59:42;;;;;;;6.63;2.30;;;3.80;99.90;;;;;;5053905;28;20206;-60
2020/12/31 07:02:11;;;;;;;4.43;2.20;;;3.80;99.90;;;;;;5052769;28;20190;-60
2020/12/31 07:04:41;;;;;;;4.25;2.03;;;3.80;99.90;;;;;;5054478;28;20175;-60
2020/12/31 07:07:19;;;;;;;4.13;2.00;;;3.80;99.90;;;;;;5053528;28;20193;-60
2020/12/31 07:09:58;;;;;;;4.05;2.17;;;3.90;99.90;;;;;;5053785;28;20182;-59
2020/12/31 07:12:31;;;;;;;5.07;2.22;;;3.90;99.90;;;;;;5033817;28;20647;-60
2020/12/31 07:14:57;;;;;;;3.15;1.90;;;3.90;99.90;;;;;;5034269;28;20183;-59
2020/12/31 07:17:23;;;;;;;4.05;2.05;;;3.90;99.90;;;;;;5034368;28;20167;-60
2020/12/31 07:19:49;;;;;;;3.40;2.00;;;3.90;99.90;;;;;;5034333;28;20219;-60
2020/12/31 07:22:16;;;;;;;4.28;1.73;;;3.90;99.90;;;;;;5033263;28;20185;-60
2020/12/31 07:24:53;;;;;;;2.78;1.52;;;3.90;99.90;;;;;;5053459;28;20223;-59
2020/12/31 07:27:24;;;;;;;3.60;1.50;;;4.00;99.90;;;;;;5053804;28;20540;-59
2020/12/31 07:30:06;;;;;;;4.53;1.40;;;4.00;99.90;;;;;;5051571;28;20174;-59
2020/12/31 07:33:02;;;;;;;3.10;1.52;;;3.90;99.90;;;;;;5052687;28;20178;-60
2020/12/31 07:35:31;;;;;;;3.95;1.77;;;3.90;99.90;;;;;;5062353;28;20190;-61
2020/12/31 07:38:04;;;;;;;4.28;0.90;;;3.90;99.90;;;;;;5053039;28;20682;-61
2020/12/31 07:40:37;;;;;;;3.72;1.05;;;3.90;99.90;;;;;;5052386;28;20201;-61
2020/12/31 07:43:04;;;;;;;1.30;0.90;;;3.90;99.90;;;;;;5053111;28;20163;-60
2020/12/31 07:45:31;;;;;;;1.50;1.05;;;3.90;99.90;;;;;;5053691;28;20182;-61
2020/12/31 07:47:57;;;;;;;1.60;1.10;;;3.90;99.90;;;;;;5053109;28;20183;-60
2020/12/31 07:50:24;;;;;;;2.75;1.05;;;3.90;99.90;;;;;;5053265;28;20225;-61
2020/12/31 07:52:50;;;;;;;1.83;0.90;;;3.80;99.90;;;;;;5052159;28;20175;-61
2020/12/31 07:55:16;;;;;;;2.85;1.15;;;3.80;99.90;;;;;;5053054;28;20186;-61
2020/12/31 07:57:42;;;;;;;1.90;1.42;;;3.90;99.90;;;;;;5053429;28;20163;-61
2020/12/31 08:00:16;;;;;;;2.13;1.35;;;3.80;99.90;;;;;;5052550;28;20340;-61
2020/12/31 08:02:46;;;;;;;1.70;1.10;;;3.80;99.90;;;;;;5051225;28;20186;-60
2020/12/31 08:05:20;;;;;;;1.92;1.15;;;3.80;99.90;;;;;;5052999;28;20673;-61
2020/12/31 08:07:56;;;;;;;1.80;1.10;;;3.60;99.90;;;;;;5053004;28;20256;-61
2020/12/31 08:10:22;;;;;;;3.47;1.50;;;3.60;99.90;;;;;;5053121;28;20163;-60
2020/12/31 08:12:59;;;;;;;6.93;2.83;;;3.60;99.90;;;;;;5053021;28;20524;-61
2020/12/31 08:15:26;;;;;;;2.28;1.30;;;3.50;99.90;;;;;;5053068;28;20174;-61
2020/12/31 08:17:53;;;;;;;4.07;1.42;;;3.50;99.90;;;;;;5052253;28;20175;-61
2020/12/31 08:20:20;;;;;;;3.28;1.65;;;3.50;99.90;;;;;;5052827;28;20499;-61
2020/12/31 08:22:54;;;;;;;1.92;1.48;;;3.60;99.90;;;;;;5051626;28;20542;-61
2020/12/31 08:25:24;;;;;;;3.30;1.55;;;3.50;99.90;;;;;;5030822;28;20223;-61
2020/12/31 08:27:53;;;;;;;6.28;1.63;;;3.50;99.90;;;;;;5032923;28;20163;-61
2020/12/31 08:30:20;;;;;;;2.33;1.45;;;3.50;99.90;;;;;;5047039;28;20175;-61
2020/12/31 08:32:55;;;;;;;6.68;1.50;;;3.50;99.90;;;;;;5052548;28;20186;-61
2020/12/31 08:35:24;;;;;;;2.65;1.60;;;3.50;99.90;;;;;;5052738;28;20174;-60
2020/12/31 08:38:02;;;;;;;2.58;1.80;;;3.50;99.90;;;;;;5052499;28;20193;-60
2020/12/31 08:40:32;;;;;;;3.08;1.65;;;3.60;99.90;;;;;;5052292;28;20627;-61
2020/12/31 08:42:58;;;;;;;4.47;1.80;;;3.60;99.90;;;;;;5052417;28;20178;-61
2020/12/31 08:45:32;;;;;;;4.13;1.23;;;3.70;99.90;;;;;;5052364;28;20174;-60
2020/12/31 08:48:20;;;;;;;4.18;1.50;;;3.60;99.90;;;;;;5052410;28;20170;-61
2020/12/31 08:51:12;;;;;;;3.47;1.40;;;3.60;99.90;;;;;;5051532;28;20163;-61
2020/12/31 08:53:52;;;;;;;2.30;1.15;;;3.60;99.90;;;;;;5052261;28;20178;-60
2020/12/31 08:56:19;;;;;;;3.15;1.50;;;3.50;99.90;;;;;;5052283;28;20171;-61
2020/12/31 08:58:46;;;;;;;4.15;1.58;;;3.60;99.90;;;;;;5052469;28;20213;-61
2020/12/31 09:01:26;;;;;;;3.80;1.48;;;3.50;99.90;;;;;;5052057;28;20179;-61
2020/12/31 09:04:11;;;;;;;2.58;1.45;;;3.60;99.90;;;;;;5051852;28;20186;-60
2020/12/31 09:06:43;;;;;;;2.10;1.35;;;3.70;99.90;;;;;;5051836;28;20726;-60
2020/12/31 09:09:28;;;;;;;4.07;1.70;;;3.70;99.90;;;;;;5051755;28;20627;-61
2020/12/31 09:12:00;;;;;;;5.80;2.45;;;3.70;99.90;;;;;;5052326;28;20175;-60
2020/12/31 09:14:27;;;;;;;3.35;2.15;;;3.80;99.90;;;;;;5053936;28;20201;-61
2020/12/31 09:16:53;;;;;;;3.58;2.67;;;3.80;99.90;;;;;;5055202;28;20197;-61
2020/12/31 09:19:19;;;;;;;3.67;2.45;;;3.90;99.90;;;;;;5050892;28;20210;-61
2020/12/31 09:21:46;;;;;;;5.00;1.77;;;3.90;99.90;;;;;;5050680;28;20228;-61
2020/12/31 09:24:16;;;;;;;3.90;2.05;;;3.90;99.90;;;;;;5056072;28;20179;-61
2020/12/31 09:26:58;;;;;;;4.95;2.40;;;3.90;99.90;;;;;;5055452;28;20217;-60
2020/12/31 09:29:25;;;;;;;3.63;1.75;;;3.80;99.90;;;;;;5051368;28;20175;-60
2020/12/31 09:31:51;;;;;;;2.17;1.50;;;3.90;99.90;;;;;;5059841;28;20190;-61
2020/12/31 09:34:17;;;;;;;7.22;1.80;;;4.00;99.90;;;;;;5033075;28;20171;-61
2020/12/31 09:36:44;;;;;;;3.42;1.70;;;3.90;99.90;;;;;;5053569;28;20183;-60
2020/12/31 09:39:10;;;;;;;3.17;1.42;;;4.00;99.90;;;;;;5052470;28;20222;-60
2020/12/31 09:41:36;;;;;;;4.07;1.60;;;4.00;99.90;;;;;;5055551;28;20190;-60
2020/12/31 09:44:03;;;;;;;2.35;1.30;;;4.00;99.90;;;;;;5053891;28;20182;-60
2020/12/31 09:46:29;;;;;;;2.78;1.23;;;4.00;99.90;;;;;;5053929;28;20174;-61
2020/12/31 09:48:55;;;;;;;2.55;1.20;;;4.00;99.90;;;;;;5055130;28;20186;-60
2020/12/31 09:51:21;;;;;;;2.13;0.90;;;4.20;99.90;;;;;;5054532;28;20183;-60
2020/12/31 09:53:50;;;;;;;2.80;1.00;;;4.30;99.90;;;;;;5052160;28;20186;-60
2020/12/31 09:56:20;;;;;;;1.42;0.80;;;4.40;99.90;;;;;;5053818;28;20639;-60
2020/12/31 09:58:46;;;;;;;4.60;0.88;;;4.50;99.90;;;;;;5056159;28;20221;-60
2020/12/31 10:01:14;;;;;;;2.17;0.98;;;4.40;99.90;;;;;;5053579;28;20171;-60
2020/12/31 10:03:40;;;;;;;2.88;1.30;;;4.40;99.90;;;;;;5061869;28;20581;-60
2020/12/31 10:06:07;;;;;;;3.28;0.98;;;4.40;99.90;;;;;;5055854;28;20178;-60
2020/12/31 10:08:34;;;;;;;2.90;0.82;;;4.40;99.90;;;;;;5055501;28;20677;-60
2020/12/31 10:11:00;;;;;;;2.92;0.60;;;4.40;99.90;;;;;;5062918;28;20175;-60
2020/12/31 10:13:27;;;;;;;1.08;0.50;;;4.40;99.90;;;;;;5054570;28;20547;-60
2020/12/31 10:15:53;;;;;;;1.00;0.50;;;4.40;99.90;;;;;;5054814;28;20179;-60
2020/12/31 10:18:19;;;;;;;0.60;0.40;;;4.40;99.90;;;;;;5058534;28;20178;-60
2020/12/31 10:20:45;;;;;;;1.73;0.60;;;4.50;99.90;;;;;;5062109;28;20186;-61
2020/12/31 10:23:11;;;;;;;1.25;0.50;;;4.40;99.90;;;;;;5064479;28;20526;-60
2020/12/31 10:25:37;;;;;;;1.17;0.60;;;4.50;99.90;;;;;;5060715;28;20245;-60
2020/12/31 10:28:04;;;;;;;1.58;0.57;;;4.50;99.90;;;;;;5061268;28;20534;-60
2020/12/31 10:30:30;;;;;;;1.33;0.60;;;4.40;99.90;;;;;;5059417;28;20680;-60
2020/12/31 10:32:56;;;;;;;1.13;0.63;;;4.50;99.90;;;;;;5062060;28;20205;-60
2020/12/31 10:35:22;;;;;;;2.05;0.40;;;4.60;99.90;;;;;;5048592;28;20193;-60
2020/12/31 10:37:48;;;;;;;3.22;0.60;;;4.50;99.90;;;;;;5044209;28;20182;-60
2020/12/31 10:40:14;;;;;;;0.93;0.55;;;4.50;99.90;;;;;;5044961;28;20211;-60
2020/12/31 10:42:41;;;;;;;2.88;0.57;;;4.40;99.90;;;;;;5056106;28;20186;-60
2020/12/31 10:45:07;;;;;;;2.40;0.57;;;4.50;99.90;;;;;;5055825;28;20181;-60
2020/12/31 10:47:33;;;;;;;1.15;0.50;;;4.50;99.90;;;;;;5052560;28;20170;-59
2020/12/31 10:50:00;;;;;;;1.40;0.70;;;4.50;99.90;;;;;;5060045;28;20194;-60
2020/12/31 10:52:26;;;;;;;1.05;0.60;;;4.50;99.90;;;;;;5060968;28;20182;-60
2020/12/31 10:54:52;;;;;;;0.93;0.60;;;4.50;99.90;;;;;;5056614;28;20181;-60
2020/12/31 10:57:18;;;;;;;2.72;0.50;;;4.60;99.90;;;;;;5062123;28;20175;-60
2020/12/31 10:59:44;;;;;;;1.77;0.73;;;4.60;99.90;;;;;;5062135;28;20247;-60
2020/12/31 11:02:10;;;;;;;0.93;0.60;;;4.60;99.90;;;;;;5058135;28;20538;-60
2020/12/31 11:04:36;;;;;;;1.23;0.80;;;4.60;99.90;;;;;;5060733;28;20644;-60
2020/12/31 11:07:02;;;;;;;2.15;0.50;;;4.70;99.90;;;;;;5060332;28;20179;-60
2020/12/31 11:09:29;;;;;;;2.22;0.80;;;4.70;99.90;;;;;;5060546;28;20178;-60
2020/12/31 11:11:55;;;;;;;1.40;0.85;;;4.70;99.90;;;;;;5060278;28;20178;-58
2020/12/31 11:14:21;;;;;;;3.60;0.93;;;4.70;99.90;;;;;;5058333;28;20175;-59
2020/12/31 11:16:51;;;;;;;1.70;0.90;;;4.70;99.90;;;;;;5061871;28;20182;-61
2020/12/31 11:19:17;;;;;;;1.17;0.70;;;4.70;99.90;;;;;;5056714;28;20202;-59
2020/12/31 11:21:43;;;;;;;1.55;1.10;;;4.80;99.90;;;;;;5053411;28;20175;-60
2020/12/31 11:24:09;;;;;;;1.75;1.00;;;4.80;99.90;;;;;;5053264;28;20179;-60
2020/12/31 11:26:35;;;;;;;1.75;0.90;;;4.90;99.90;;;;;;5053767;28;20221;-59
2020/12/31 11:29:02;;;;;;;2.25;1.10;;;4.90;99.90;;;;;;5053882;28;20171;-60
2020/12/31 11:31:29;;;;;;;3.28;1.48;;;4.90;99.90;;;;;;5054089;28;20640;-60
2020/12/31 11:33:55;;;;;;;5.28;1.30;;;4.90;99.90;;;;;;5052255;28;20182;-60
2020/12/31 11:36:23;;;;;;;2.08;1.30;;;4.90;99.90;;;;;;5053406;28;20185;-60
2020/12/31 11:38:49;;;;;;;2.30;1.13;;;4.90;99.90;;;;;;5051791;28;20210;-59
2020/12/31 11:41:15;;;;;;;2.25;1.50;;;5.00;99.90;;;;;;5053330;28;20281;-59
2020/12/31 11:43:42;;;;;;;1.50;1.08;;;5.00;99.90;;;;;;5053718;28;20171;-59
2020/12/31 11:46:08;;;;;;;1.75;1.20;;;5.00;99.90;;;;;;5051973;28;20186;-59
2020/12/31 11:48:34;;;;;;;4.55;1.50;;;5.10;99.90;;;;;;5053702;28;20182;-59
2020/12/31 11:51:01;;;;;;;1.20;0.82;;;5.20;99.90;;;;;;5053318;28;20627;-59
2020/12/31 11:53:28;;;;;;;2.17;1.10;;;5.40;99.90;;;;;;5053293;28;20170;-58
2020/12/31 11:55:54;;;;;;;1.98;1.02;;;5.50;99.90;;;;;;5053583;28;20170;-57
2020/12/31 11:58:20;;;;;;;1.95;1.33;;;5.60;99.90;;;;;;5052536;28;20542;-58
2020/12/31 12:00:48;;;;;;;4.55;1.33;;;5.60;99.90;;;;;;5053744;28;20226;-59
2020/12/31 12:03:14;;;;;;;3.95;1.60;;;5.50;99.90;;;;;;5052834;28;20174;-59
2020/12/31 12:05:40;;;;;;;2.47;1.60;;;5.40;99.90;;;;;;5053122;28;20175;-58
2020/12/31 12:08:06;;;;;;;2.88;1.67;;;5.30;99.90;;;;;;5053059;28;20180;-56
2020/12/31 12:10:33;;;;;;;4.10;1.80;;;5.30;99.90;;;;;;5052260;28;20179;-58
2020/12/31 12:12:59;;;;;;;2.47;1.83;;;5.30;99.90;;;;;;5053029;28;20542;-57
2020/12/31 12:15:25;;;;;;;2.63;1.63;;;5.20;99.90;;;;;;5052868;28;20551;-58
2020/12/31 12:17:52;;;;;;;5.32;1.88;;;5.20;99.90;;;;;;5052893;28;20662;-58
2020/12/31 12:20:18;;;;;;;10.52;4.65;;;5.10;99.90;;;;;;5052812;28;20206;-55
2020/12/31 12:22:45;;;;;;;5.75;2.30;;;5.00;99.90;;;;;;5051824;28;20170;-59
2020/12/31 12:25:11;;;;;;;3.05;1.75;;;5.00;99.90;;;;;;5052411;28;20233;-57
2020/12/31 12:27:38;;;;;;;5.72;2.03;;;4.90;99.90;;;;;;5051638;28;20182;-58
2020/12/31 12:30:07;;;;;;;5.47;1.88;;;4.80;99.90;;;;;;5052991;28;20194;-58
2020/12/31 12:32:35;;;;;;;2.92;1.95;;;4.80;99.90;;;;;;5052662;28;20171;-58
2020/12/31 12:35:01;;;;;;;4.18;2.42;;;4.90;99.90;;;;;;5052642;28;20194;-58
2020/12/31 12:37:27;;;;;;;3.08;2.13;;;4.80;99.90;;;;;;5052664;28;20178;-58
2020/12/31 12:39:53;;;;;;;3.80;2.20;;;4.70;99.90;;;;;;5052849;28;20210;-58
2020/12/31 12:42:19;;;;;;;5.60;2.50;;;4.80;99.90;;;;;;5052004;28;20182;-58
2020/12/31 12:44:46;;;;;;;5.50;2.30;;;4.80;99.90;;;;;;5052215;28;20228;-58
2020/12/31 12:47:12;;;;;;;7.80;2.53;;;4.80;99.90;;;;;;5051917;28;20624;-57
2020/12/31 12:49:39;;;;;;;4.00;2.58;;;4.80;99.90;;;;;;5052151;28;20201;-57
2020/12/31 12:52:05;;;;;;;4.05;2.47;;;4.80;99.90;;;;;;5056248;28;20177;-57
2020/12/31 12:54:31;;;;;;;4.95;2.42;;;4.80;99.90;;;;;;5051896;28;20534;-57
2020/12/31 12:56:57;;;;;;;4.30;2.72;;;4.80;99.90;;;;;;5067771;28;20184;-58
2020/12/31 12:59:23;;;;;;;6.88;2.80;;;4.90;99.90;;;;;;5071909;28;20228;-57
2020/12/31 13:01:49;;;;;;;4.15;2.58;;;4.90;99.90;;;;;;5055308;28;20186;-56
2020/12/31 13:04:16;;;;;;;5.55;2.63;;;4.80;99.90;;;;;;5051798;28;20174;-57